TimeHST,TemperatureF,Dew PointF,Humidity,Sea Level PressureIn,VisibilityMPH,Wind Direction,Wind SpeedMPH,Gust SpeedMPH,PrecipitationIn,Events,Conditions,WindDirDegrees,DateUTC
12:58 AM,68.7,60.6,75,30.06,10.0,East,5.8,-,N/A,,Mostly Cloudy,100,2013-11-26 10:58:00
1:58 AM,70.3,60.3,70,30.06,10.0,East,4.6,-,N/A,,Mostly Cloudy,100,2013-11-26 11:58:00
2:58 AM,68.7,60.6,75,30.04,10.0,East,1.2,-,N/A,,Mostly Cloudy,90,2013-11-26 12:58:00
3:58 AM,68.9,61.2,76,30.04,10.0,East,2.3,-,N/A,,Scattered Clouds,80,2013-11-26 13:58:00
4:58 AM,68.0,61.3,79,30.05,10.0,ESE,3.5,-,N/A,,Scattered Clouds,110,2013-11-26 14:58:00
5:58 AM,64.0,60.3,87,30.07,10.0,West,3.5,-,N/A,,Mostly Cloudy,270,2013-11-26 15:58:00
6:58 AM,67.6,61.7,81,30.07,10.0,West,2.3,-,N/A,,Partly Cloudy,280,2013-11-26 16:58:00
7:58 AM,69.3,63.1,81,30.08,10.0,Variable,1.2,-,N/A,,Clear,0,2013-11-26 17:58:00
8:58 AM,74.8,63.7,68,30.09,10.0,East,11.5,-,N/A,,Clear,80,2013-11-26 18:58:00
9:58 AM,76.6,63.7,64,30.10,10.0,East,12.7,-,N/A,,Clear,80,2013-11-26 19:58:00
10:58 AM,78.4,62.8,58,30.06,10.0,East,10.4,-,N/A,,Clear,90,2013-11-26 20:58:00
11:58 AM,79.5,61.9,55,30.04,10.0,East,12.7,-,N/A,,Clear,90,2013-11-26 21:58:00
12:45 PM,80.6,62.6,54,30.04,10.0,ESE,11.5,-,N/A,,Partly Cloudy,120,2013-11-26 22:45:00
12:58 PM,80.6,62.2,53,30.00,10.0,East,13.8,-,N/A,,Clear,90,2013-11-26 22:58:00
1:58 PM,80.1,62.6,55,29.98,10.0,ENE,11.5,-,N/A,,Partly Cloudy,70,2013-11-26 23:58:00
2:58 PM,80.8,61.9,52,29.97,10.0,East,12.7,-,N/A,,Clear,90,2013-11-27 00:58:00
3:58 PM,79.0,61.3,55,29.98,10.0,ENE,15.0,20.7,N/A,,Clear,70,2013-11-27 01:58:00
4:58 PM,76.5,62.8,62,29.99,10.0,East,8.1,-,N/A,,Partly Cloudy,100,2013-11-27 02:58:00
5:58 PM,74.1,63.1,68,30.03,10.0,Variable,4.6,-,N/A,,Mostly Cloudy,0,2013-11-27 03:58:00
6:58 PM,73.2,63.5,71,30.01,10.0,ESE,6.9,-,N/A,,Partly Cloudy,110,2013-11-27 04:58:00
7:58 PM,72.9,63.5,72,30.06,10.0,ENE,6.9,-,N/A,,Mostly Cloudy,70,2013-11-27 05:58:00
8:58 PM,72.5,63.1,72,30.08,10.0,East,5.8,-,N/A,,Mostly Cloudy,80,2013-11-27 06:58:00
9:58 PM,72.0,63.1,74,30.09,10.0,Variable,2.3,-,N/A,,Mostly Cloudy,0,2013-11-27 07:58:00
10:58 PM,67.6,62.1,82,30.11,10.0,WNW,6.9,-,N/A,,Clear,300,2013-11-27 08:58:00
11:39 PM,68.0,64.4,88,30.13,10.0,NNW,5.8,-,N/A,,Light Drizzle,330,2013-11-27 09:39:00
11:48 PM,69.8,64.4,83,30.12,10.0,NNW,5.8,-,N/A,,Scattered Clouds,330,2013-11-27 09:48:00
11:58 PM,69.3,63.9,83,30.09,10.0,NW,4.6,-,0.00,,Scattered Clouds,310,2013-11-27 09:58:00